Karachi Weather



Karachi's Current Weather

Temprature 25o smoke

smoke

Rain: 0 %

Min Temprature25o
Max Temprature25o
Humidity83
Wind Speed2.6 m/h
Sun Rise06:04:42
Sun Set18:56:18
Current Time: 21-Apr-2019 05:26:10
Lat/Lon: 24.87, 67.03




Karachi's Geo Location



Karachi's Weather Forecast

Time Overall Temp Min Temp Max Temp Humidity Wind Speed Rain
21-Apr-2019 (Sun)
08:00:00 clear sky 25.850 25.850 26.369 70 5.12 m/h 0 %
11:00:00 clear sky 30.810 30.810 31.150 43 6.43 m/h 0 %
14:00:00 clear sky 32.480 32.480 32.650 38 7.73 m/h 0 %
17:00:00 clear sky 30.550 30.550 30.550 50 7.71 m/h 0 %
20:00:00 clear sky 27.850 27.850 27.850 68 6.05 m/h 0 %
23:00:00 clear sky 26.890 26.890 26.890 75 5.34 m/h 0 %
22-Apr-2019 (Mon)
02:00:00 clear sky 25.970 25.970 25.970 81 5.13 m/h 0 %
05:00:00 clear sky 25.314 25.314 25.314 84 4.96 m/h 0 %
08:00:00 clear sky 26.616 26.616 26.616 73 4.22 m/h 0 %
11:00:00 clear sky 31.620 31.620 31.620 45 5.21 m/h 0 %
14:00:00 clear sky 32.915 32.915 32.915 44 7.05 m/h 0 %
17:00:00 clear sky 30.831 30.831 30.831 54 7.26 m/h 0 %
20:00:00 clear sky 27.850 27.850 27.850 73 5.6 m/h 0 %
23:00:00 clear sky 26.896 26.896 26.896 78 4.62 m/h 0 %
23-Apr-2019 (Tue)
02:00:00 clear sky 26.077 26.077 26.077 82 5.11 m/h 0 %
05:00:00 clear sky 25.546 25.546 25.546 82 5.02 m/h 0 %
08:00:00 clear sky 26.777 26.777 26.777 73 5.37 m/h 0 %
11:00:00 clear sky 32.150 32.150 32.150 44 6.63 m/h 0 %
14:00:00 clear sky 33.750 33.750 33.750 39 7.77 m/h 0 %
17:00:00 clear sky 31.050 31.050 31.050 49 7.7 m/h 0 %
20:00:00 clear sky 28.128 28.128 28.128 67 6.83 m/h 0 %
23:00:00 clear sky 27.150 27.150 27.150 74 6.14 m/h 0 %
24-Apr-2019 (Wed)
02:00:00 clear sky 26.282 26.282 26.282 79 6.36 m/h 0 %
05:00:00 clear sky 25.794 25.794 25.794 80 6.26 m/h 0 %
08:00:00 clear sky 27.150 27.150 27.150 72 6.72 m/h 0 %
11:00:00 clear sky 31.009 31.009 31.009 52 8.24 m/h 0 %
14:00:00 clear sky 32.350 32.350 32.350 46 9.14 m/h 0 %
17:00:00 clear sky 30.650 30.650 30.650 52 9.2 m/h 0 %
20:00:00 clear sky 28.055 28.055 28.055 66 7.25 m/h 0 %
23:00:00 clear sky 27.245 27.245 27.245 74 5.69 m/h 0 %
25-Apr-2019 (Thu)
02:00:00 clear sky 26.650 26.650 26.650 75 6.16 m/h 0 %
05:00:00 clear sky 26.302 26.302 26.302 71 6.12 m/h 0 %
08:00:00 clear sky 27.620 27.620 27.620 64 6.04 m/h 0 %
11:00:00 clear sky 32.390 32.390 32.390 39 6.79 m/h 0 %
14:00:00 clear sky 34.250 34.250 34.250 29 6.85 m/h 0 %
17:00:00 clear sky 33.611 33.611 33.611 27 6.76 m/h 0 %
20:00:00 clear sky 30.325 30.325 30.325 41 5.34 m/h 0 %
23:00:00 clear sky 29.043 29.043 29.043 47 5.02 m/h 0 %
26-Apr-2019 (Fri)
02:00:00 clear sky 27.532 27.532 27.532 55 5.54 m/h 0 %
05:00:00 clear sky 26.956 26.956 26.956 55 4.78 m/h 0 %


Karachi's Tourist Spots

Parks and Zoos in Karachi

Famous Cities (60)